createdAt,value
2023-05-16T00:00:13.540Z,100363.06
2023-05-16T00:02:40.543Z,100364.22
2023-05-16T00:05:16.302Z,100357.06
2023-05-16T00:07:43.927Z,100353.47
2023-05-16T00:10:10.608Z,100365.81
2023-05-16T00:12:37.473Z,100359.81
2023-05-16T00:15:05.250Z,100352.22
2023-05-16T00:17:32.109Z,100361.47
2023-05-16T00:19:58.711Z,100353.94
2023-05-16T00:22:25.477Z,100361.06
2023-05-16T00:24:51.762Z,100366.66
2023-05-16T00:27:18.060Z,100369.81
2023-05-16T00:29:44.377Z,100368.66
2023-05-16T00:32:11.158Z,100358.63
2023-05-16T00:34:37.661Z,100379.66
2023-05-16T00:37:04.101Z,100372.22
2023-05-16T00:39:30.828Z,100371.72
2023-05-16T00:41:57.714Z,100364.97
2023-05-16T00:44:23.991Z,100369.00
2023-05-16T00:46:50.393Z,100367.38
2023-05-16T00:49:16.791Z,100368.22
2023-05-16T00:51:43.155Z,100365.72
2023-05-16T00:54:10.471Z,100370.06
2023-05-16T00:56:36.931Z,100374.31
2023-05-16T00:59:03.859Z,100377.38
2023-05-16T01:01:30.449Z,100374.94
2023-05-16T01:03:57.024Z,100386.44
2023-05-16T01:06:23.451Z,100384.75
2023-05-16T01:08:49.777Z,100370.25
2023-05-16T01:11:26.961Z,100383.81
2023-05-16T01:13:53.469Z,100377.66
2023-05-16T01:16:27.036Z,100372.22
2023-05-16T01:19:11.063Z,100371.72
2023-05-16T01:22:05.584Z,100383.47
2023-05-16T01:24:43.674Z,100384.53
2023-05-16T01:27:11.035Z,100383.84
2023-05-16T01:29:37.351Z,100380.97
2023-05-16T01:32:03.971Z,100394.94
2023-05-16T01:34:30.444Z,100396.94
2023-05-16T01:37:12.545Z,100394.06
2023-05-16T01:39:44.228Z,100405.75
2023-05-16T01:42:14.410Z,100399.09
2023-05-16T01:44:45.744Z,100396.16
2023-05-16T01:47:13.859Z,100396.03
2023-05-16T01:49:56.019Z,100394.84
2023-05-16T01:52:42.655Z,100394.56
2023-05-16T01:55:12.146Z,100407.94
2023-05-16T01:57:39.845Z,100412.88
2023-05-16T02:00:06.917Z,100405.34
2023-05-16T02:02:34.094Z,100420.88
2023-05-16T02:05:00.516Z,100414.88
2023-05-16T02:07:27.044Z,100413.06
2023-05-16T02:09:53.403Z,100420.38
2023-05-16T02:12:19.757Z,100414.69
2023-05-16T02:14:46.059Z,100423.56
2023-05-16T02:17:12.379Z,100435.25
2023-05-16T02:19:38.666Z,100433.34
2023-05-16T02:22:05.074Z,100438.41
2023-05-16T02:24:31.467Z,100446.75
2023-05-16T02:26:57.774Z,100443.34
2023-05-16T02:29:24.244Z,100448.16
2023-05-16T02:31:50.548Z,100450.28
2023-05-16T02:34:16.828Z,100444.97
2023-05-16T02:36:43.182Z,100453.94
2023-05-16T02:39:10.272Z,100445.22
2023-05-16T02:41:37.030Z,100454.97
2023-05-16T02:44:03.358Z,100461.25
2023-05-16T02:46:30.901Z,100465.94
2023-05-16T02:48:57.393Z,100472.75
2023-05-16T02:51:24.783Z,100472.44
2023-05-16T02:53:51.343Z,100471.66
2023-05-16T02:56:17.864Z,100477.16
2023-05-16T02:58:45.635Z,100481.84
2023-05-16T03:01:11.964Z,100479.22
2023-05-16T03:03:38.357Z,100487.50
2023-05-16T03:06:04.813Z,100476.38
2023-05-16T03:08:31.112Z,100478.28
2023-05-16T03:10:57.610Z,100489.31
2023-05-16T03:13:24.073Z,100488.03
2023-05-16T03:15:50.639Z,100486.53
2023-05-16T03:18:16.994Z,100487.78
2023-05-16T03:20:43.278Z,100484.75
2023-05-16T03:23:09.621Z,100502.16
2023-05-16T03:25:38.867Z,100495.00
2023-05-16T03:28:05.842Z,100497.88
2023-05-16T03:30:32.154Z,100497.66
2023-05-16T03:32:58.502Z,100504.50
2023-05-16T03:35:25.225Z,100507.63
2023-05-16T03:37:51.771Z,100505.53
2023-05-16T03:40:18.350Z,100504.78
2023-05-16T03:42:44.640Z,100517.91
2023-05-16T03:45:11.216Z,100522.03
2023-05-16T03:47:37.735Z,100509.75
2023-05-16T03:50:04.613Z,100518.44
2023-05-16T03:52:31.011Z,100522.78
2023-05-16T03:54:57.299Z,100528.91
2023-05-16T03:57:23.650Z,100524.25
2023-05-16T03:59:50.005Z,100522.16
2023-05-16T04:02:18.681Z,100520.31
2023-05-16T04:04:45.842Z,100518.66
2023-05-16T04:07:12.328Z,100530.75
2023-05-16T04:09:38.727Z,100534.63
2023-05-16T04:12:05.184Z,100551.13
2023-05-16T04:14:32.112Z,100539.41
2023-05-16T04:16:58.528Z,100546.81
2023-05-16T04:19:25.054Z,100540.22
2023-05-16T04:21:52.201Z,100552.63
2023-05-16T04:24:18.560Z,100552.34
2023-05-16T04:26:44.892Z,100559.31
2023-05-16T04:29:11.671Z,100565.78
2023-05-16T04:31:38.024Z,100556.88
2023-05-16T04:34:04.696Z,100574.59
2023-05-16T04:36:31.468Z,100567.50
2023-05-16T04:38:57.792Z,100571.53
2023-05-16T04:41:24.123Z,100570.88
2023-05-16T04:43:50.627Z,100577.44
2023-05-16T04:46:17.215Z,100584.59
2023-05-16T04:48:43.543Z,100575.72
2023-05-16T04:51:09.891Z,100585.56
2023-05-16T04:53:36.523Z,100592.53
2023-05-16T04:56:02.865Z,100587.13
2023-05-16T04:58:29.228Z,100603.94
2023-05-16T05:00:55.852Z,100609.00
2023-05-16T05:03:22.280Z,100612.97
2023-05-16T05:05:48.635Z,100616.28
2023-05-16T05:08:14.976Z,100626.78
2023-05-16T05:10:41.762Z,100622.72
2023-05-16T05:13:08.159Z,100623.09
2023-05-16T05:15:34.441Z,100625.47
2023-05-16T05:18:01.067Z,100638.22
2023-05-16T05:20:27.563Z,100639.13
2023-05-16T05:22:53.928Z,100649.63
2023-05-16T05:25:20.281Z,100652.22
2023-05-16T05:27:46.990Z,100647.09
2023-05-16T05:30:13.363Z,100652.81
2023-05-16T05:32:39.868Z,100653.97
2023-05-16T05:35:06.581Z,100654.13
2023-05-16T05:37:32.980Z,100658.97
2023-05-16T05:39:59.476Z,100657.06
2023-05-16T05:42:25.798Z,100671.59
2023-05-16T05:44:52.204Z,100682.97
2023-05-16T05:47:18.546Z,100680.56
2023-05-16T05:49:44.918Z,100680.13
2023-05-16T05:52:11.297Z,100687.34
2023-05-16T05:54:37.657Z,100690.53
2023-05-16T05:57:04.067Z,100693.69
2023-05-16T05:59:30.349Z,100692.94
2023-05-16T06:01:57.906Z,100696.16
2023-05-16T06:04:24.406Z,100695.81
2023-05-16T06:06:50.866Z,100711.63
2023-05-16T06:09:17.261Z,100704.63
2023-05-16T06:11:45.698Z,100710.06
2023-05-16T06:14:12.121Z,100706.41
2023-05-16T06:16:40.154Z,100713.19
2023-05-16T06:19:07.029Z,100715.94
2023-05-16T06:21:33.355Z,100735.00
2023-05-16T06:23:59.652Z,100730.28
2023-05-16T06:26:25.946Z,100739.59
2023-05-16T06:28:52.219Z,100731.38
2023-05-16T06:31:18.654Z,100737.13
2023-05-16T06:33:45.886Z,100734.41
2023-05-16T06:36:12.174Z,100738.34
2023-05-16T06:38:38.472Z,100734.88
2023-05-16T06:41:04.813Z,100761.78
2023-05-16T06:43:31.187Z,100751.44
2023-05-16T06:45:57.545Z,100760.72
2023-05-16T06:48:24.047Z,100748.63
2023-05-16T06:50:52.141Z,100753.44
2023-05-16T06:53:18.774Z,100756.44
2023-05-16T06:55:45.577Z,100763.69
2023-05-16T06:58:12.189Z,100770.28
2023-05-16T07:00:38.621Z,100772.31
2023-05-16T07:03:05.094Z,100777.69
2023-05-16T07:05:31.602Z,100783.56
2023-05-16T07:07:57.994Z,100791.06
2023-05-16T07:10:24.388Z,100789.78
2023-05-16T07:12:50.991Z,100777.56
2023-05-16T07:15:17.368Z,100783.69
2023-05-16T07:17:43.752Z,100781.97
2023-05-16T07:20:13.444Z,100786.13
2023-05-16T07:22:40.600Z,100800.38
2023-05-16T07:25:12.312Z,100798.69
2023-05-16T07:27:41.346Z,100799.88
2023-05-16T07:30:09.642Z,100796.44
2023-05-16T07:32:36.053Z,100796.06
2023-05-16T07:35:02.484Z,100797.91
2023-05-16T07:37:30.563Z,100806.16
2023-05-16T07:39:57.627Z,100808.81
2023-05-16T07:42:24.062Z,100809.94
2023-05-16T07:44:50.439Z,100806.06
2023-05-16T07:47:16.891Z,100817.84
2023-05-16T07:49:43.298Z,100814.53
2023-05-16T07:52:09.693Z,100832.63
2023-05-16T07:54:36.176Z,100813.31
2023-05-16T07:57:02.849Z,100832.53
2023-05-16T07:59:29.510Z,100827.03
2023-05-16T08:01:56.525Z,100823.50
2023-05-16T08:04:22.936Z,100831.03
2023-05-16T08:06:49.806Z,100825.31
2023-05-16T08:09:16.200Z,100845.28
2023-05-16T08:11:45.366Z,100847.66
2023-05-16T08:14:11.972Z,100844.66
2023-05-16T08:16:38.451Z,100842.53
2023-05-16T08:19:05.034Z,100843.41
2023-05-16T08:21:31.911Z,100853.00
2023-05-16T08:23:58.356Z,100858.38
2023-05-16T08:26:25.013Z,100864.22
2023-05-16T08:28:51.457Z,100858.22
2023-05-16T08:31:17.892Z,100847.72
2023-05-16T08:33:44.290Z,100856.16
2023-05-16T08:36:10.730Z,100847.50
2023-05-16T08:38:37.167Z,100849.88
2023-05-16T08:41:03.883Z,100852.63
2023-05-16T08:43:30.431Z,100853.31
2023-05-16T08:45:56.943Z,100849.84
2023-05-16T08:48:23.960Z,100847.59
2023-05-16T08:50:51.675Z,100851.41
2023-05-16T08:53:21.571Z,100845.00
2023-05-16T08:55:48.501Z,100847.91
2023-05-16T08:58:14.956Z,100852.97
2023-05-16T09:00:41.658Z,100858.38
2023-05-16T09:03:08.113Z,100854.38
2023-05-16T09:05:34.753Z,100853.00
2023-05-16T09:08:01.241Z,100858.47
2023-05-16T09:10:27.669Z,100857.31
2023-05-16T09:12:54.049Z,100869.25
2023-05-16T09:15:21.651Z,100875.03
2023-05-16T09:17:48.894Z,100870.78
2023-05-16T09:20:16.649Z,100860.16
2023-05-16T09:22:53.427Z,100872.47
2023-05-16T09:25:29.199Z,100882.38
2023-05-16T09:27:57.961Z,100893.00
2023-05-16T09:30:31.981Z,100886.72
2023-05-16T09:32:59.123Z,100877.25
2023-05-16T09:35:42.510Z,100883.31
2023-05-16T09:38:17.039Z,100874.94
2023-05-16T09:40:44.485Z,100886.97
2023-05-16T09:43:10.863Z,100876.78
2023-05-16T09:45:37.240Z,100892.28
2023-05-16T09:48:13.073Z,100882.72
2023-05-16T09:50:40.156Z,100884.97
2023-05-16T09:53:06.544Z,100890.88
2023-05-16T09:55:33.338Z,100883.78
2023-05-16T09:57:59.853Z,100884.56
2023-05-16T10:00:31.167Z,100887.00
2023-05-16T10:02:58.108Z,100889.97
2023-05-16T10:05:27.880Z,100886.63
2023-05-16T10:07:58.510Z,100909.22
2023-05-16T10:10:25.315Z,100912.22
2023-05-16T10:12:52.548Z,100906.38
2023-05-16T10:15:19.524Z,100918.72
2023-05-16T10:17:49.310Z,100920.47
2023-05-16T10:20:16.105Z,100917.44
2023-05-16T10:22:46.835Z,100923.84
2023-05-16T10:25:18.202Z,100917.81
2023-05-16T10:27:44.661Z,100931.19
2023-05-16T10:30:11.497Z,100926.91
2023-05-16T10:32:39.477Z,100918.50
2023-05-16T10:35:08.545Z,100934.75
2023-05-16T10:37:36.621Z,100935.56
2023-05-16T10:40:05.898Z,100944.41
2023-05-16T10:42:32.919Z,100935.59
2023-05-16T10:45:18.583Z,100948.31
2023-05-16T10:48:11.521Z,100937.22
2023-05-16T10:50:39.882Z,100953.97
2023-05-16T10:53:22.695Z,100958.53
2023-05-16T10:56:01.276Z,100953.34
2023-05-16T10:58:38.440Z,100957.19
2023-05-16T11:01:24.289Z,100942.00
2023-05-16T11:04:02.987Z,100953.19
2023-05-16T11:06:35.768Z,100949.47
2023-05-16T11:09:14.079Z,100957.03
2023-05-16T11:11:48.686Z,100950.81
2023-05-16T11:14:24.798Z,100958.47
2023-05-16T11:17:02.565Z,100940.47
2023-05-16T11:19:31.459Z,100945.03
2023-05-16T11:22:21.846Z,100950.28
2023-05-16T11:24:54.429Z,100946.66
2023-05-16T11:27:25.329Z,100954.22
2023-05-16T11:29:52.247Z,100953.59
2023-05-16T11:32:22.844Z,100963.41
2023-05-16T11:34:49.707Z,100955.69
2023-05-16T11:37:17.018Z,100947.00
2023-05-16T11:39:43.961Z,100946.38
2023-05-16T11:42:10.900Z,100951.88
2023-05-16T11:44:37.627Z,100954.66
2023-05-16T11:47:04.291Z,100963.53
2023-05-16T11:49:31.075Z,100956.00
2023-05-16T11:52:00.356Z,100962.84
2023-05-16T11:54:26.893Z,100962.22
2023-05-16T11:56:53.775Z,100962.25
2023-05-16T11:59:20.671Z,100941.72
2023-05-16T12:01:50.446Z,100958.91
2023-05-16T12:04:17.594Z,100951.84
2023-05-16T12:06:48.400Z,100972.78
2023-05-16T12:09:18.222Z,100980.06
2023-05-16T12:11:45.067Z,100971.03
2023-05-16T12:14:12.321Z,100979.00
2023-05-16T12:16:39.593Z,100980.25
2023-05-16T12:19:06.972Z,100985.16
2023-05-16T12:21:33.502Z,100980.69
2023-05-16T12:24:00.089Z,100975.66
2023-05-16T12:26:27.509Z,100978.16
2023-05-16T12:28:56.218Z,100994.31
2023-05-16T12:31:31.590Z,100992.56
2023-05-16T12:33:58.802Z,100981.25
2023-05-16T12:36:26.257Z,100996.41
2023-05-16T12:38:53.420Z,100980.75
2023-05-16T12:41:21.514Z,100982.81
2023-05-16T12:43:48.428Z,100976.06
2023-05-16T12:46:15.284Z,100975.72
2023-05-16T12:48:43.166Z,100975.47
2023-05-16T12:51:13.664Z,100972.91
2023-05-16T12:54:05.610Z,100969.47
2023-05-16T12:56:35.959Z,100971.44
2023-05-16T12:59:02.360Z,100988.38
2023-05-16T13:01:28.757Z,100986.88
2023-05-16T13:03:55.412Z,100990.97
2023-05-16T13:06:21.879Z,100991.28
2023-05-16T13:08:48.231Z,100990.59
2023-05-16T13:11:14.576Z,100990.44
2023-05-16T13:13:40.974Z,101000.63
2023-05-16T13:16:07.374Z,101009.69
2023-05-16T13:18:34.527Z,100997.22
2023-05-16T13:21:01.111Z,101001.50
2023-05-16T13:23:27.773Z,101005.88
2023-05-16T13:25:54.159Z,101026.38
2023-05-16T13:28:22.102Z,101002.63
2023-05-16T13:30:48.479Z,101020.16
2023-05-16T13:33:14.890Z,100999.00
2023-05-16T13:35:41.296Z,101036.69
2023-05-16T13:38:07.629Z,101032.38
2023-05-16T13:40:33.988Z,101014.00
2023-05-16T13:43:01.616Z,101018.22
2023-05-16T13:45:28.849Z,101023.78
2023-05-16T13:47:55.476Z,101036.84
2023-05-16T13:50:21.952Z,101039.94
2023-05-16T13:52:48.771Z,101042.09
2023-05-16T13:55:15.341Z,101027.13
2023-05-16T13:57:41.749Z,101051.34
2023-05-16T14:00:31.666Z,101046.34
2023-05-16T14:02:58.770Z,101041.09
2023-05-16T14:05:26.115Z,101058.91
2023-05-16T14:07:52.626Z,101043.97
2023-05-16T14:10:19.113Z,101040.66
2023-05-16T14:12:45.470Z,101045.91
2023-05-16T14:15:11.952Z,101044.47
2023-05-16T14:17:38.420Z,101043.22
2023-05-16T14:20:11.086Z,101051.16
2023-05-16T14:22:38.348Z,101052.44
2023-05-16T14:25:05.155Z,101048.88
2023-05-16T14:27:31.505Z,101027.25
2023-05-16T14:29:58.850Z,101046.56
2023-05-16T14:32:25.388Z,101056.81
2023-05-16T14:34:51.859Z,101066.44
2023-05-16T14:37:18.511Z,101063.63
2023-05-16T14:39:46.432Z,101070.69
2023-05-16T14:42:12.910Z,101068.56
2023-05-16T14:44:39.317Z,101073.03
2023-05-16T14:47:06.513Z,101071.88
2023-05-16T14:49:32.925Z,101081.44
2023-05-16T14:51:59.332Z,101080.53
2023-05-16T14:54:25.732Z,101093.31
2023-05-16T14:56:52.341Z,101085.28
2023-05-16T14:59:18.754Z,101085.41
2023-05-16T15:01:45.199Z,101095.00
2023-05-16T15:04:11.642Z,101086.53
2023-05-16T15:06:38.037Z,101088.88
2023-05-16T15:09:04.520Z,101072.91
2023-05-16T15:11:32.113Z,101076.31
2023-05-16T15:13:58.560Z,101075.38
2023-05-16T15:16:25.015Z,101091.53
2023-05-16T15:18:51.461Z,101081.44
2023-05-16T15:21:17.935Z,101087.38
2023-05-16T15:23:44.278Z,101089.25
2023-05-16T15:26:11.166Z,101098.56
2023-05-16T15:28:37.573Z,101095.66
2023-05-16T15:31:05.544Z,101093.38
2023-05-16T15:33:31.904Z,101100.44
2023-05-16T15:35:58.325Z,101073.44
2023-05-16T15:38:24.717Z,101069.88
2023-05-16T15:41:04.954Z,101078.25
2023-05-16T15:43:32.396Z,101080.22
2023-05-16T15:45:58.793Z,101072.34
2023-05-16T15:48:25.218Z,101075.78
2023-05-16T15:50:51.620Z,101070.69
2023-05-16T15:53:17.959Z,101071.56
2023-05-16T15:55:44.332Z,101087.84
2023-05-16T15:58:10.783Z,101071.69
2023-05-16T16:00:37.162Z,101077.00
2023-05-16T16:03:03.649Z,101048.06
2023-05-16T16:05:30.192Z,101053.53
2023-05-16T16:07:56.684Z,101041.28
2023-05-16T16:10:23.056Z,101043.06
2023-05-16T16:12:59.596Z,101048.75
2023-05-16T16:15:26.362Z,101040.59
2023-05-16T16:17:53.104Z,101038.25
2023-05-16T16:20:22.392Z,101039.81
2023-05-16T16:22:48.796Z,101051.44
2023-05-16T16:25:15.415Z,101047.84
2023-05-16T16:27:42.231Z,101060.81
2023-05-16T16:30:09.048Z,101047.53
2023-05-16T16:32:35.578Z,101054.34
2023-05-16T16:35:04.942Z,101052.13
2023-05-16T16:37:31.643Z,101063.28
2023-05-16T16:39:57.995Z,101071.06
2023-05-16T16:42:25.470Z,101071.84
2023-05-16T16:44:52.391Z,101058.28
2023-05-16T16:47:19.193Z,101062.09
2023-05-16T16:49:45.887Z,101055.47
2023-05-16T16:52:12.266Z,101067.63
2023-05-16T16:54:38.667Z,101068.72
2023-05-16T16:57:05.328Z,101064.09
2023-05-16T16:59:31.862Z,101079.84
2023-05-16T17:01:58.287Z,101062.94
2023-05-16T17:04:24.713Z,101058.13
2023-05-16T17:06:51.083Z,101070.00
2023-05-16T17:09:18.334Z,101076.38
2023-05-16T17:12:28.253Z,101067.53
2023-05-16T17:14:57.152Z,101070.09
2023-05-16T17:17:25.078Z,101058.69
2023-05-16T17:19:52.200Z,101058.88
2023-05-16T17:22:19.136Z,101062.09
2023-05-16T17:24:45.838Z,101050.72
2023-05-16T17:27:13.476Z,101064.13
2023-05-16T17:29:39.903Z,101067.81
2023-05-16T17:32:06.575Z,101055.78
2023-05-16T17:34:33.510Z,101067.41
2023-05-16T17:37:00.354Z,101057.44
2023-05-16T17:39:26.872Z,101057.53
2023-05-16T17:41:57.412Z,101055.16
2023-05-16T17:44:23.954Z,101061.75
2023-05-16T17:46:50.528Z,101047.03
2023-05-16T17:49:17.501Z,101063.09
2023-05-16T17:51:48.893Z,101053.94
2023-05-16T17:54:17.509Z,101067.06
2023-05-16T17:56:48.626Z,101051.72
2023-05-16T17:59:15.895Z,101055.53
2023-05-16T18:01:43.397Z,101077.25
2023-05-16T18:04:09.996Z,101053.50
2023-05-16T18:06:40.380Z,101062.41
2023-05-16T18:09:09.682Z,101068.91
2023-05-16T18:11:38.862Z,101068.81
2023-05-16T18:14:05.550Z,101067.16
2023-05-16T18:16:32.123Z,101059.63
2023-05-16T18:18:58.941Z,101068.06
2023-05-16T18:21:25.665Z,101086.31
2023-05-16T18:23:52.421Z,101080.03
2023-05-16T18:26:19.271Z,101093.69
2023-05-16T18:28:45.980Z,101098.94
2023-05-16T18:31:12.536Z,101140.59
2023-05-16T18:33:39.061Z,101146.66
2023-05-16T18:36:05.793Z,101150.25
2023-05-16T18:38:33.448Z,101160.56
2023-05-16T18:41:00.696Z,101162.22
2023-05-16T18:43:27.294Z,101166.13
2023-05-16T18:45:53.820Z,101168.94
2023-05-16T18:48:20.525Z,101172.69
2023-05-16T18:50:47.180Z,101179.19
2023-05-16T18:53:13.697Z,101177.88
2023-05-16T18:55:40.254Z,101192.72
2023-05-16T18:58:06.970Z,101183.91
2023-05-16T19:00:34.312Z,101185.16
2023-05-16T19:03:01.204Z,101186.34
2023-05-16T19:05:28.381Z,101191.00
2023-05-16T19:07:55.207Z,101187.81
2023-05-16T19:10:22.106Z,101177.59
2023-05-16T19:12:49.324Z,101173.19
2023-05-16T19:15:16.165Z,101189.13
2023-05-16T19:17:43.013Z,101177.19
2023-05-16T19:20:10.935Z,101186.69
2023-05-16T19:22:37.781Z,101175.94
2023-05-16T19:25:05.497Z,101190.38
2023-05-16T19:27:32.313Z,101195.84
2023-05-16T19:29:58.992Z,101195.31
2023-05-16T19:32:25.819Z,101201.56
2023-05-16T19:34:52.753Z,101188.31
2023-05-16T19:37:19.420Z,101194.38
2023-05-16T19:39:46.120Z,101208.56
2023-05-16T19:42:12.708Z,101202.72
2023-05-16T19:44:39.253Z,101213.25
2023-05-16T19:47:05.966Z,101217.13
2023-05-16T19:49:32.658Z,101208.69
2023-05-16T19:51:59.262Z,101219.84
2023-05-16T19:54:25.854Z,101222.84
2023-05-16T19:56:52.356Z,101214.59
2023-05-16T19:59:18.926Z,101213.19
2023-05-16T20:01:45.836Z,101223.75
2023-05-16T20:04:12.671Z,101217.59
2023-05-16T20:06:39.579Z,101220.59
2023-05-16T20:09:06.230Z,101228.09
2023-05-16T20:11:33.030Z,101219.78
2023-05-16T20:14:00.157Z,101230.41
2023-05-16T20:16:27.673Z,101231.13
2023-05-16T20:18:54.408Z,101223.84
2023-05-16T20:21:21.109Z,101234.31
2023-05-16T20:23:47.777Z,101237.25
2023-05-16T20:26:15.146Z,101223.00
2023-05-16T20:28:42.146Z,101215.44
2023-05-16T20:31:08.673Z,101224.09
2023-05-16T20:33:35.311Z,101232.66
2023-05-16T20:36:02.309Z,101238.38
2023-05-16T20:38:28.792Z,101242.94
2023-05-16T20:40:55.711Z,101240.75
2023-05-16T20:43:22.564Z,101243.56
2023-05-16T20:45:49.069Z,101238.91
2023-05-16T20:48:15.975Z,101246.81
2023-05-16T20:50:42.520Z,101244.69
2023-05-16T20:53:09.015Z,101242.78
2023-05-16T20:55:35.467Z,101249.25
2023-05-16T20:58:02.040Z,101239.31
2023-05-16T21:00:28.629Z,101229.78
2023-05-16T21:02:55.237Z,101238.66
2023-05-16T21:05:25.596Z,101232.63
2023-05-16T21:07:53.038Z,101234.03
2023-05-16T21:10:19.613Z,101236.78
2023-05-16T21:12:46.121Z,101234.91
2023-05-16T21:15:12.584Z,101237.50
2023-05-16T21:17:40.745Z,101238.75
2023-05-16T21:20:08.686Z,101232.13
2023-05-16T21:22:35.964Z,101246.69
2023-05-16T21:25:02.426Z,101235.16
2023-05-16T21:27:28.926Z,101231.94
2023-05-16T21:29:55.494Z,101227.44
2023-05-16T21:32:22.075Z,101224.63
2023-05-16T21:34:48.983Z,101235.09
2023-05-16T21:37:16.813Z,101232.53
2023-05-16T21:39:43.273Z,101236.25
2023-05-16T21:42:09.814Z,101233.84
2023-05-16T21:44:36.346Z,101240.91
2023-05-16T21:47:02.880Z,101236.69
2023-05-16T21:49:29.481Z,101242.47
2023-05-16T21:51:55.977Z,101235.94
2023-05-16T21:54:22.391Z,101233.06
2023-05-16T21:56:48.833Z,101234.47
2023-05-16T21:59:15.392Z,101238.34
2023-05-16T22:01:41.854Z,101232.09
2023-05-16T22:04:08.963Z,101231.34
2023-05-16T22:06:35.762Z,101230.44
2023-05-16T22:09:02.197Z,101233.16
2023-05-16T22:11:28.666Z,101230.28
2023-05-16T22:13:55.375Z,101226.09
2023-05-16T22:16:21.907Z,101230.91
2023-05-16T22:18:48.506Z,101228.84
2023-05-16T22:21:16.307Z,101219.84
2023-05-16T22:23:42.823Z,101230.13
2023-05-16T22:26:09.391Z,101227.31
2023-05-16T22:28:35.898Z,101231.25
2023-05-16T22:31:02.332Z,101236.50
2023-05-16T22:33:28.923Z,101229.84
2023-05-16T22:35:55.550Z,101240.00
2023-05-16T22:38:22.036Z,101241.13
2023-05-16T22:40:48.552Z,101224.81
2023-05-16T22:43:15.159Z,101216.94
2023-05-16T22:45:41.796Z,101225.09
2023-05-16T22:48:08.504Z,101213.56
2023-05-16T22:50:35.060Z,101219.59
2023-05-16T22:53:01.588Z,101215.28
2023-05-16T22:55:28.380Z,101207.25
2023-05-16T22:57:57.130Z,101201.19
2023-05-16T23:00:24.443Z,101203.38
2023-05-16T23:02:51.045Z,101202.25
2023-05-16T23:05:17.709Z,101214.91
2023-05-16T23:07:44.137Z,101210.69
2023-05-16T23:10:10.856Z,101212.16
2023-05-16T23:12:37.716Z,101212.91
2023-05-16T23:15:09.786Z,101219.81
2023-05-16T23:17:38.074Z,101223.72
2023-05-16T23:20:06.881Z,101215.03
2023-05-16T23:22:33.510Z,101216.66
2023-05-16T23:25:00.085Z,101216.63
2023-05-16T23:27:26.633Z,101224.09
2023-05-16T23:29:53.221Z,101218.00
2023-05-16T23:32:19.884Z,101226.25
2023-05-16T23:34:46.469Z,101227.38
2023-05-16T23:37:12.929Z,101225.13
2023-05-16T23:39:39.417Z,101225.09
2023-05-16T23:42:06.015Z,101226.16
2023-05-16T23:44:33.429Z,101225.50
2023-05-16T23:47:00.821Z,101220.28
2023-05-16T23:49:27.296Z,101227.59
2023-05-16T23:51:58.068Z,101218.03
2023-05-16T23:54:27.600Z,101215.19
2023-05-16T23:56:54.046Z,101216.94
2023-05-16T23:59:20.604Z,101221.13
